createdAt,value
2018-05-15T00:00:55.493Z,0
2018-05-15T00:01:55.008Z,0
2018-05-15T00:02:55.287Z,0
2018-05-15T00:03:55.567Z,0
2018-05-15T00:04:55.614Z,0
2018-05-15T00:05:55.607Z,0
2018-05-15T00:06:55.386Z,0
2018-05-15T00:07:55.402Z,0
2018-05-15T00:08:55.499Z,0
2018-05-15T00:09:55.447Z,0
2018-05-15T00:10:55.801Z,0
2018-05-15T00:11:55.505Z,0
2018-05-15T00:12:55.522Z,0
2018-05-15T00:13:55.794Z,0
2018-05-15T00:14:55.820Z,0
2018-05-15T00:15:55.843Z,0
2018-05-15T00:16:55.868Z,0
2018-05-15T00:17:55.885Z,0
2018-05-15T00:18:55.893Z,0
2018-05-15T00:19:55.668Z,0
2018-05-15T00:20:55.697Z,0
2018-05-15T00:21:55.809Z,0
2018-05-15T00:22:55.479Z,0
2018-05-15T00:23:56.012Z,0
2018-05-15T00:24:56.029Z,0
2018-05-15T00:25:56.116Z,0
2018-05-15T00:26:56.074Z,0
2018-05-15T00:27:56.108Z,0
2018-05-15T00:28:55.867Z,0
2018-05-15T00:29:55.655Z,0
2018-05-15T00:30:56.204Z,0
2018-05-15T00:31:55.948Z,0
2018-05-15T00:32:55.975Z,0
2018-05-15T00:33:56.004Z,0
2018-05-15T00:34:56.271Z,0
2018-05-15T00:35:56.044Z,0
2018-05-15T00:36:56.336Z,0
2018-05-15T00:37:56.087Z,4
2018-05-15T00:38:56.091Z,0
2018-05-15T00:39:56.123Z,0
2018-05-15T00:40:56.216Z,0
2018-05-15T00:41:56.183Z,0
2018-05-15T00:42:56.205Z,0
2018-05-15T00:43:56.479Z,0
2018-05-15T00:44:56.247Z,0
2018-05-15T00:45:56.275Z,0
2018-05-15T00:46:56.297Z,0
2018-05-15T00:47:56.057Z,0
2018-05-15T00:48:56.340Z,0
2018-05-15T00:49:56.361Z,0
2018-05-15T00:50:56.635Z,0
2018-05-15T00:51:56.666Z,0
2018-05-15T00:52:56.426Z,0
2018-05-15T00:53:56.448Z,0
2018-05-15T00:54:56.730Z,0
2018-05-15T00:55:56.794Z,0
2018-05-15T00:56:56.799Z,0
2018-05-15T00:57:56.545Z,0
2018-05-15T00:58:56.310Z,0
2018-05-15T00:59:56.586Z,0
2018-05-15T01:00:56.666Z,0
2018-05-15T01:01:56.884Z,0
2018-05-15T01:02:56.658Z,0
2018-05-15T01:03:56.931Z,0
2018-05-15T01:04:56.962Z,0
2018-05-15T01:05:56.984Z,0
2018-05-15T01:06:57.006Z,0
2018-05-15T01:07:56.783Z,0
2018-05-15T01:08:56.789Z,0
2018-05-15T01:09:56.817Z,0
2018-05-15T01:10:56.799Z,0
2018-05-15T01:11:57.115Z,0
2018-05-15T01:12:57.147Z,0
2018-05-15T01:13:57.159Z,0
2018-05-15T01:14:56.417Z,0
2018-05-15T01:15:57.252Z,0
2018-05-15T01:16:57.233Z,0
2018-05-15T01:17:57.232Z,0
2018-05-15T01:18:57.254Z,0
2018-05-15T01:19:57.027Z,0
2018-05-15T01:20:56.806Z,0
2018-05-15T01:21:57.351Z,0
2018-05-15T01:22:57.364Z,0
2018-05-15T01:23:57.401Z,0
2018-05-15T01:24:57.425Z,0
2018-05-15T01:25:57.433Z,0
2018-05-15T01:26:57.205Z,0
2018-05-15T01:27:57.224Z,0
2018-05-15T01:28:57.497Z,0
2018-05-15T01:29:57.285Z,0
2018-05-15T01:30:57.743Z,0
2018-05-15T01:31:57.568Z,0
2018-05-15T01:32:57.590Z,0
2018-05-15T01:33:57.693Z,0
2018-05-15T01:34:57.633Z,0
2018-05-15T01:35:57.402Z,0
2018-05-15T01:36:57.165Z,0
2018-05-15T01:37:57.193Z,0
2018-05-15T01:38:57.216Z,0
2018-05-15T01:39:57.752Z,0
2018-05-15T01:40:57.512Z,0
2018-05-15T01:41:57.788Z,0
2018-05-15T01:42:57.812Z,0
2018-05-15T01:43:57.838Z,0
2018-05-15T01:44:57.861Z,0
2018-05-15T01:45:57.671Z,0
2018-05-15T01:46:57.656Z,0
2018-05-15T01:47:57.671Z,0
2018-05-15T01:48:57.938Z,0
2018-05-15T01:49:57.445Z,0
2018-05-15T01:50:59.173Z,0
2018-05-15T01:51:58.004Z,0
2018-05-15T01:52:58.025Z,0
2018-05-15T01:53:58.050Z,0
2018-05-15T01:54:58.076Z,0
2018-05-15T01:55:57.587Z,0
2018-05-15T01:56:57.865Z,0
2018-05-15T01:57:58.140Z,0
2018-05-15T01:58:57.909Z,0
2018-05-15T01:59:57.930Z,0
2018-05-15T02:00:58.007Z,0
2018-05-15T02:01:58.228Z,0
2018-05-15T02:02:57.496Z,0
2018-05-15T02:03:58.014Z,0
2018-05-15T02:04:58.292Z,0
2018-05-15T02:05:58.321Z,0
2018-05-15T02:06:58.342Z,0
2018-05-15T02:07:57.845Z,0
2018-05-15T02:08:58.137Z,0
2018-05-15T02:09:58.403Z,0
2018-05-15T02:10:58.431Z,0
2018-05-15T02:11:58.193Z,0
2018-05-15T02:12:58.463Z,0
2018-05-15T02:13:58.486Z,0
2018-05-15T02:14:58.527Z,0
2018-05-15T02:15:58.609Z,0
2018-05-15T02:16:58.549Z,0
2018-05-15T02:17:58.311Z,0
2018-05-15T02:18:58.330Z,0
2018-05-15T02:19:58.103Z,0
2018-05-15T02:20:58.377Z,0
2018-05-15T02:21:58.140Z,0
2018-05-15T02:22:58.688Z,0
2018-05-15T02:23:58.702Z,0
2018-05-15T02:24:58.205Z,0
2018-05-15T02:25:58.229Z,0
2018-05-15T02:26:58.503Z,0
2018-05-15T02:27:58.779Z,0
2018-05-15T02:28:58.802Z,0
2018-05-15T02:29:58.065Z,0
2018-05-15T02:30:58.904Z,0
2018-05-15T02:31:58.878Z,0
2018-05-15T02:32:58.895Z,0
2018-05-15T02:33:58.932Z,0
2018-05-15T02:34:58.936Z,0
2018-05-15T02:35:58.959Z,0
2018-05-15T02:36:58.727Z,0
2018-05-15T02:37:59.008Z,0
2018-05-15T02:38:59.021Z,0
2018-05-15T02:39:59.046Z,0
2018-05-15T02:40:58.806Z,0
2018-05-15T02:41:58.586Z,0
2018-05-15T02:42:58.601Z,0
2018-05-15T02:43:58.878Z,0
2018-05-15T02:44:58.639Z,0
2018-05-15T02:45:59.277Z,0
2018-05-15T02:46:58.686Z,0
2018-05-15T02:47:58.449Z,0
2018-05-15T02:48:58.970Z,0
2018-05-15T02:49:59.004Z,4
2018-05-15T02:50:59.024Z,4
2018-05-15T02:51:59.054Z,4
2018-05-15T02:52:59.074Z,4
2018-05-15T02:53:59.354Z,4
2018-05-15T02:54:59.362Z,4
2018-05-15T02:55:59.397Z,4
2018-05-15T02:56:59.443Z,4
2018-05-15T02:57:59.422Z,4
2018-05-15T02:58:59.195Z,4
2018-05-15T02:59:59.211Z,4
2018-05-15T03:00:59.292Z,4
2018-05-15T03:01:59.523Z,4
2018-05-15T03:02:59.532Z,4
2018-05-15T03:03:59.564Z,4
2018-05-15T03:04:59.588Z,4
2018-05-15T03:05:59.345Z,4
2018-05-15T03:06:59.613Z,8
2018-05-15T03:07:59.743Z,4
2018-05-15T03:08:59.399Z,8
2018-05-15T03:09:59.699Z,4
2018-05-15T03:10:59.701Z,8
2018-05-15T03:11:59.740Z,8
2018-05-15T03:12:59.502Z,8
2018-05-15T03:13:59.507Z,12
2018-05-15T03:14:59.558Z,16
2018-05-15T03:15:59.553Z,12
2018-05-15T03:16:59.558Z,16
2018-05-15T03:17:59.827Z,20
2018-05-15T03:18:59.846Z,20
2018-05-15T03:19:59.877Z,24
2018-05-15T03:20:59.902Z,28
2018-05-15T03:21:59.916Z,28
2018-05-15T03:22:59.429Z,32
2018-05-15T03:23:59.704Z,40
2018-05-15T03:24:59.725Z,44
2018-05-15T03:25:59.747Z,52
2018-05-15T03:27:00.044Z,56
2018-05-15T03:28:00.069Z,64
2018-05-15T03:29:00.084Z,68
2018-05-15T03:29:59.598Z,76
2018-05-15T03:31:00.144Z,84
2018-05-15T03:32:00.156Z,96
2018-05-15T03:32:59.918Z,108
2018-05-15T03:34:00.199Z,116
2018-05-15T03:35:00.219Z,128
2018-05-15T03:36:00.232Z,140
2018-05-15T03:36:59.756Z,152
2018-05-15T03:37:59.765Z,164
2018-05-15T03:38:59.783Z,180
2018-05-15T03:39:59.827Z,192
2018-05-15T03:41:00.333Z,208
2018-05-15T03:42:00.359Z,220
2018-05-15T03:43:00.380Z,232
2018-05-15T03:44:00.403Z,248
2018-05-15T03:45:00.426Z,260
2018-05-15T03:46:00.192Z,280
2018-05-15T03:46:59.994Z,296
2018-05-15T03:48:00.481Z,316
2018-05-15T03:49:00.490Z,332
2018-05-15T03:50:00.264Z,348
2018-05-15T03:51:00.556Z,372
2018-05-15T03:52:00.564Z,392
2018-05-15T03:53:00.337Z,408
2018-05-15T03:54:00.609Z,428
2018-05-15T03:55:00.388Z,452
2018-05-15T03:56:00.142Z,472
2018-05-15T03:57:00.164Z,500
2018-05-15T03:58:00.715Z,532
2018-05-15T03:59:00.719Z,564
2018-05-15T04:00:00.490Z,596
2018-05-15T04:01:00.269Z,632
2018-05-15T04:02:00.835Z,664
2018-05-15T04:03:00.298Z,696
2018-05-15T04:04:00.830Z,732
2018-05-15T04:05:00.592Z,768
2018-05-15T04:06:00.868Z,808
2018-05-15T04:07:00.891Z,844
2018-05-15T04:08:00.907Z,884
2018-05-15T04:09:00.681Z,916
2018-05-15T04:10:01.040Z,956
2018-05-15T04:11:01.454Z,1004
2018-05-15T04:12:00.743Z,1052
2018-05-15T04:13:01.017Z,1088
2018-05-15T04:14:01.031Z,1144
2018-05-15T04:15:00.800Z,1260
2018-05-15T04:16:00.845Z,1416
2018-05-15T04:17:00.897Z,1388
2018-05-15T04:18:00.619Z,1352
2018-05-15T04:19:00.880Z,1380
2018-05-15T04:20:00.899Z,1420
2018-05-15T04:21:01.182Z,1448
2018-05-15T04:22:01.197Z,1476
2018-05-15T04:23:01.223Z,1516
2018-05-15T04:24:01.245Z,1532
2018-05-15T04:25:01.006Z,1532
2018-05-15T04:26:01.287Z,1516
2018-05-15T04:27:00.802Z,1500
2018-05-15T04:28:01.571Z,1488
2018-05-15T04:29:01.348Z,1484
2018-05-15T04:30:01.118Z,1484
2018-05-15T04:31:01.401Z,1484
2018-05-15T04:32:01.461Z,1480
2018-05-15T04:33:01.245Z,1484
2018-05-15T04:34:01.208Z,1492
2018-05-15T04:35:01.037Z,1516
2018-05-15T04:36:01.518Z,1556
2018-05-15T04:37:01.284Z,1624
2018-05-15T04:38:01.047Z,1704
2018-05-15T04:39:01.326Z,1776
2018-05-15T04:40:01.345Z,1880
2018-05-15T04:41:01.641Z,2176
2018-05-15T04:42:01.397Z,2244
2018-05-15T04:43:01.673Z,2308
2018-05-15T04:44:01.796Z,2368
2018-05-15T04:45:01.460Z,2424
2018-05-15T04:46:01.549Z,2488
2018-05-15T04:47:01.844Z,2432
2018-05-15T04:48:01.778Z,2416
2018-05-15T04:49:01.799Z,2280
2018-05-15T04:50:01.848Z,2176
2018-05-15T04:51:01.862Z,2396
2018-05-15T04:52:01.859Z,2532
2018-05-15T04:53:01.971Z,2308
2018-05-15T04:54:01.653Z,2328
2018-05-15T04:55:01.422Z,2524
2018-05-15T04:56:01.703Z,2936
2018-05-15T04:57:01.725Z,3160
2018-05-15T04:58:01.755Z,3332
2018-05-15T04:59:02.011Z,3476
2018-05-15T05:00:01.775Z,3604
2018-05-15T05:01:02.055Z,3752
2018-05-15T05:02:02.386Z,3912
2018-05-15T05:03:02.118Z,4024
2018-05-15T05:04:02.191Z,4120
2018-05-15T05:05:02.152Z,3720
2018-05-15T05:06:02.172Z,4132
2018-05-15T05:07:01.947Z,4516
2018-05-15T05:08:02.221Z,4600
2018-05-15T05:09:01.985Z,4656
2018-05-15T05:10:02.014Z,4696
2018-05-15T05:11:02.298Z,4608
2018-05-15T05:12:01.809Z,4388
2018-05-15T05:13:02.086Z,4644
2018-05-15T05:14:02.103Z,4588
2018-05-15T05:15:02.125Z,4536
2018-05-15T05:16:01.894Z,4448
2018-05-15T05:17:02.477Z,4424
2018-05-15T05:18:02.206Z,4380
2018-05-15T05:19:02.228Z,4332
2018-05-15T05:20:02.493Z,4292
2018-05-15T05:21:02.423Z,4240
2018-05-15T05:22:02.532Z,4208
2018-05-15T05:23:02.558Z,4188
2018-05-15T05:24:02.330Z,4172
2018-05-15T05:25:02.599Z,4196
2018-05-15T05:26:02.373Z,4220
2018-05-15T05:27:02.152Z,4264
2018-05-15T05:28:02.419Z,4300
2018-05-15T05:29:02.438Z,4332
2018-05-15T05:30:02.479Z,4372
2018-05-15T05:31:02.480Z,4420
2018-05-15T05:32:02.315Z,4488
2018-05-15T05:33:02.518Z,4508
2018-05-15T05:34:02.792Z,4520
2018-05-15T05:35:02.851Z,4608
2018-05-15T05:36:02.585Z,4684
2018-05-15T05:37:02.608Z,4736
2018-05-15T05:38:02.882Z,4732
2018-05-15T05:39:02.649Z,4772
2018-05-15T05:40:03.136Z,4832
2018-05-15T05:41:02.965Z,4812
2018-05-15T05:42:02.989Z,4780
2018-05-15T05:43:03.007Z,4808
2018-05-15T05:44:03.027Z,4848
2018-05-15T05:45:03.055Z,4884
2018-05-15T05:46:02.829Z,4888
2018-05-15T05:47:02.895Z,4928
2018-05-15T05:48:02.872Z,4992
2018-05-15T05:49:03.151Z,5076
2018-05-15T05:50:03.151Z,5096
2018-05-15T05:51:03.183Z,5284
2018-05-15T05:52:03.117Z,5536
2018-05-15T05:53:03.226Z,5740
2018-05-15T05:54:02.990Z,5880
2018-05-15T05:55:03.366Z,5996
2018-05-15T05:56:03.318Z,6020
2018-05-15T05:57:03.328Z,6024
2018-05-15T05:58:03.103Z,6064
2018-05-15T05:59:03.356Z,6136
2018-05-15T06:00:02.871Z,6212
2018-05-15T06:01:03.442Z,6568
2018-05-15T06:02:02.988Z,6792
2018-05-15T06:03:03.478Z,6500
2018-05-15T06:04:03.498Z,5248
2018-05-15T06:05:03.510Z,5032
2018-05-15T06:06:03.024Z,5352
2018-05-15T06:07:03.559Z,6816
2018-05-15T06:08:03.075Z,6304
2018-05-15T06:09:03.097Z,5820
2018-05-15T06:10:03.625Z,5972
2018-05-15T06:11:03.402Z,7004
2018-05-15T06:12:03.420Z,6732
2018-05-15T06:13:03.438Z,6516
2018-05-15T06:14:03.471Z,6340
2018-05-15T06:15:03.489Z,6236
2018-05-15T06:16:03.768Z,6304
2018-05-15T06:17:03.592Z,6564
2018-05-15T06:18:03.557Z,6608
2018-05-15T06:19:03.865Z,6704
2018-05-15T06:20:03.624Z,6400
2018-05-15T06:21:03.848Z,6944
2018-05-15T06:22:03.645Z,6488
2018-05-15T06:23:03.679Z,5964
2018-05-15T06:24:03.691Z,5932
2018-05-15T06:25:03.758Z,6220
2018-05-15T06:26:03.743Z,6272
2018-05-15T06:27:03.784Z,6548
2018-05-15T06:28:03.847Z,7032
2018-05-15T06:29:03.829Z,7404
2018-05-15T06:30:03.837Z,7140
2018-05-15T06:31:03.859Z,7412
2018-05-15T06:32:04.038Z,7560
2018-05-15T06:33:04.166Z,8688
2018-05-15T06:34:03.680Z,9400
2018-05-15T06:35:04.226Z,9732
2018-05-15T06:36:04.271Z,10192
2018-05-15T06:37:03.498Z,8272
2018-05-15T06:38:04.025Z,7740
2018-05-15T06:39:04.303Z,7580
2018-05-15T06:40:04.066Z,7696
2018-05-15T06:41:04.150Z,8236
2018-05-15T06:42:04.112Z,7080
2018-05-15T06:43:03.879Z,6704
2018-05-15T06:44:04.162Z,6300
2018-05-15T06:45:04.448Z,5932
2018-05-15T06:46:04.210Z,5860
2018-05-15T06:47:04.027Z,6000
2018-05-15T06:48:04.267Z,6224
2018-05-15T06:49:04.529Z,6460
2018-05-15T06:50:04.311Z,6676
2018-05-15T06:51:04.347Z,6912
2018-05-15T06:52:04.410Z,7124
2018-05-15T06:53:04.651Z,7360
2018-05-15T06:54:04.400Z,7544
2018-05-15T06:55:04.431Z,7592
2018-05-15T06:56:04.491Z,7528
2018-05-15T06:57:04.484Z,7372
2018-05-15T06:58:04.524Z,7344
2018-05-15T06:59:04.781Z,7440
2018-05-15T07:00:04.559Z,7540
2018-05-15T07:01:04.828Z,7648
2018-05-15T07:02:04.600Z,7792
2018-05-15T07:03:04.625Z,7948
2018-05-15T07:04:04.654Z,8100
2018-05-15T07:05:04.686Z,8068
2018-05-15T07:06:04.695Z,7988
2018-05-15T07:07:05.029Z,7912
2018-05-15T07:08:05.005Z,7836
2018-05-15T07:09:04.771Z,7852
2018-05-15T07:10:04.798Z,7712
2018-05-15T07:11:05.074Z,7388
2018-05-15T07:12:04.840Z,7196
2018-05-15T07:13:05.128Z,7068
2018-05-15T07:14:05.045Z,6968
2018-05-15T07:15:04.410Z,7016
2018-05-15T07:16:04.683Z,7292
2018-05-15T07:17:04.964Z,7572
2018-05-15T07:18:04.737Z,7712
2018-05-15T07:19:04.517Z,7772
2018-05-15T07:20:05.037Z,7584
2018-05-15T07:21:04.808Z,7612
2018-05-15T07:22:05.423Z,7832
2018-05-15T07:23:05.363Z,7988
2018-05-15T07:24:05.404Z,8412
2018-05-15T07:25:05.162Z,10304
2018-05-15T07:26:05.444Z,9792
2018-05-15T07:27:06.669Z,10916
2018-05-15T07:28:05.238Z,11572
2018-05-15T07:29:05.254Z,10772
2018-05-15T07:30:05.293Z,10460
2018-05-15T07:31:05.549Z,10840
2018-05-15T07:32:05.588Z,10560
2018-05-15T07:33:05.827Z,9780
2018-05-15T07:34:05.618Z,8852
2018-05-15T07:35:05.393Z,7888
2018-05-15T07:36:05.419Z,7820
2018-05-15T07:37:05.491Z,7708
2018-05-15T07:38:05.472Z,7512
2018-05-15T07:39:05.753Z,7040
2018-05-15T07:40:05.772Z,6828
2018-05-15T07:41:05.820Z,8100
2018-05-15T07:42:06.059Z,7224
2018-05-15T07:43:05.950Z,7128
2018-05-15T07:44:05.387Z,7000
2018-05-15T07:45:05.670Z,6816
2018-05-15T07:46:05.693Z,6868
2018-05-15T07:47:05.710Z,6572
2018-05-15T07:48:06.064Z,6704
2018-05-15T07:49:06.084Z,7096
2018-05-15T07:50:06.055Z,7624
2018-05-15T07:51:05.577Z,7784
2018-05-15T07:52:05.898Z,7828
2018-05-15T07:53:05.871Z,8148
2018-05-15T07:54:05.891Z,8924
2018-05-15T07:55:06.168Z,9248
2018-05-15T07:56:05.935Z,9592
2018-05-15T07:57:05.716Z,9820
2018-05-15T07:58:05.999Z,10580
2018-05-15T07:59:06.264Z,10880
2018-05-15T08:00:05.773Z,10880
2018-05-15T08:01:06.130Z,10704
2018-05-15T08:02:06.247Z,10856
2018-05-15T08:03:06.366Z,11260
2018-05-15T08:04:05.876Z,11688
2018-05-15T08:05:05.907Z,13388
2018-05-15T08:06:06.440Z,14912
2018-05-15T08:07:06.535Z,13024
2018-05-15T08:08:06.516Z,12684
2018-05-15T08:09:06.535Z,12632
2018-05-15T08:10:06.293Z,12440
2018-05-15T08:11:06.323Z,11988
2018-05-15T08:12:06.340Z,11504
2018-05-15T08:13:06.367Z,11040
2018-05-15T08:14:06.137Z,10632
2018-05-15T08:15:06.414Z,10832
2018-05-15T08:16:06.703Z,12192
2018-05-15T08:17:06.220Z,12520
2018-05-15T08:18:06.233Z,13056
2018-05-15T08:19:06.766Z,13300
2018-05-15T08:20:06.028Z,13456
2018-05-15T08:21:06.319Z,13220
2018-05-15T08:22:06.397Z,13436
2018-05-15T08:23:06.377Z,14876
2018-05-15T08:24:06.904Z,13580
2018-05-15T08:25:06.680Z,13932
2018-05-15T08:26:06.719Z,14148
2018-05-15T08:27:06.740Z,13540
2018-05-15T08:28:07.016Z,12540
2018-05-15T08:29:07.046Z,11584
2018-05-15T08:30:06.808Z,10724
2018-05-15T08:31:06.583Z,10068
2018-05-15T08:32:06.910Z,9356
2018-05-15T08:33:07.133Z,8172
2018-05-15T08:34:06.895Z,7056
2018-05-15T08:35:07.122Z,6556
2018-05-15T08:36:07.195Z,6504
2018-05-15T08:37:06.969Z,6592
2018-05-15T08:38:06.745Z,6956
2018-05-15T08:39:07.022Z,7544
2018-05-15T08:40:07.048Z,8588
2018-05-15T08:41:07.091Z,9516
2018-05-15T08:42:06.598Z,10340
2018-05-15T08:43:07.131Z,10628
2018-05-15T08:44:07.414Z,10812
2018-05-15T08:45:07.195Z,10748
2018-05-15T08:46:07.216Z,10588
2018-05-15T08:47:07.501Z,10196
2018-05-15T08:48:07.530Z,9584
2018-05-15T08:49:07.039Z,9124
2018-05-15T08:50:07.571Z,8900
2018-05-15T08:51:07.094Z,8872
2018-05-15T08:52:07.392Z,9012
2018-05-15T08:53:07.144Z,11972
2018-05-15T08:54:07.444Z,13364
2018-05-15T08:55:07.455Z,12260
2018-05-15T08:56:07.475Z,15648
2018-05-15T08:57:07.529Z,14300
2018-05-15T08:58:07.545Z,12844
2018-05-15T08:59:07.834Z,12140
2018-05-15T09:00:07.335Z,11352
2018-05-15T09:01:07.615Z,10540
2018-05-15T09:02:07.898Z,10148
2018-05-15T09:03:07.716Z,9988
2018-05-15T09:04:07.941Z,9836
2018-05-15T09:05:07.985Z,9668
2018-05-15T09:06:07.499Z,9276
2018-05-15T09:07:07.769Z,8792
2018-05-15T09:08:07.795Z,8156
2018-05-15T09:09:08.077Z,7640
2018-05-15T09:10:08.118Z,7240
2018-05-15T09:11:07.868Z,7064
2018-05-15T09:12:07.899Z,7060
2018-05-15T09:13:07.921Z,7172
2018-05-15T09:14:08.208Z,7260
2018-05-15T09:15:07.719Z,7396
2018-05-15T09:16:08.004Z,7636
2018-05-15T09:17:07.517Z,8152
2018-05-15T09:18:07.849Z,8596
2018-05-15T09:19:08.097Z,8868
2018-05-15T09:20:08.111Z,9164
2018-05-15T09:21:08.135Z,8728
2018-05-15T09:22:08.157Z,8320
2018-05-15T09:23:08.486Z,7832
2018-05-15T09:24:07.936Z,7528
2018-05-15T09:25:08.483Z,7300
2018-05-15T09:26:08.237Z,7180
2018-05-15T09:27:08.265Z,7048
2018-05-15T09:28:08.043Z,6996
2018-05-15T09:29:08.324Z,6904
2018-05-15T09:30:08.599Z,6856
2018-05-15T09:31:08.361Z,7008
2018-05-15T09:32:08.650Z,7540
2018-05-15T09:33:08.421Z,8108
2018-05-15T09:34:08.441Z,8652
2018-05-15T09:35:08.473Z,8108
2018-05-15T09:36:08.761Z,7432
2018-05-15T09:37:08.524Z,7320
2018-05-15T09:38:08.344Z,7468
2018-05-15T09:39:08.326Z,8100
2018-05-15T09:40:08.344Z,8240
2018-05-15T09:41:08.874Z,8168
2018-05-15T09:42:08.661Z,8212
2018-05-15T09:43:08.981Z,8228
2018-05-15T09:44:08.450Z,8288
2018-05-15T09:45:08.475Z,8312
2018-05-15T09:46:08.512Z,8484
2018-05-15T09:47:08.539Z,8868
2018-05-15T09:48:09.077Z,9472
2018-05-15T09:49:09.106Z,9804
2018-05-15T09:50:09.155Z,10596
2018-05-15T09:51:08.645Z,11648
2018-05-15T09:52:08.927Z,16416
2018-05-15T09:53:08.746Z,17568
2018-05-15T09:54:09.239Z,17760
2018-05-15T09:55:08.752Z,18528
2018-05-15T09:56:08.526Z,18176
2018-05-15T09:57:09.312Z,13720
2018-05-15T09:58:09.485Z,12224
2018-05-15T09:59:09.110Z,10716
2018-05-15T10:00:09.139Z,9720
2018-05-15T10:01:09.176Z,8812
2018-05-15T10:02:08.935Z,7952
2018-05-15T10:03:09.221Z,7160
2018-05-15T10:04:09.500Z,6348
2018-05-15T10:05:09.275Z,5680
2018-05-15T10:06:09.555Z,5048
2018-05-15T10:07:09.327Z,4396
2018-05-15T10:08:09.042Z,3776
2018-05-15T10:09:09.639Z,3224
2018-05-15T10:10:09.667Z,2768
2018-05-15T10:11:09.185Z,2404
2018-05-15T10:12:09.717Z,2112
2018-05-15T10:13:09.809Z,1880
2018-05-15T10:14:09.847Z,1716
2018-05-15T10:15:09.792Z,1612
2018-05-15T10:16:09.823Z,1536
2018-05-15T10:17:09.335Z,1532
2018-05-15T10:18:09.611Z,1544
2018-05-15T10:19:09.893Z,1524
2018-05-15T10:20:10.102Z,1520
2018-05-15T10:21:09.952Z,1528
2018-05-15T10:22:09.722Z,1540
2018-05-15T10:23:09.741Z,1544
2018-05-15T10:24:09.772Z,1524
2018-05-15T10:25:09.792Z,1520
2018-05-15T10:26:10.077Z,1492
2018-05-15T10:27:10.117Z,1456
2018-05-15T10:28:10.259Z,1444
2018-05-15T10:29:10.151Z,1388
2018-05-15T10:30:09.406Z,1324
2018-05-15T10:31:10.192Z,1300
2018-05-15T10:32:09.708Z,1344
2018-05-15T10:33:10.204Z,1420
2018-05-15T10:34:10.266Z,1492
2018-05-15T10:35:10.048Z,1532
2018-05-15T10:36:10.315Z,1576
2018-05-15T10:37:10.336Z,1596
2018-05-15T10:38:10.356Z,1644
2018-05-15T10:39:10.371Z,1736
2018-05-15T10:40:10.146Z,1852
2018-05-15T10:41:10.431Z,1968
2018-05-15T10:42:10.190Z,2052
2018-05-15T10:43:10.508Z,2116
2018-05-15T10:44:10.447Z,2176
2018-05-15T10:45:10.002Z,2232
2018-05-15T10:46:10.330Z,2308
2018-05-15T10:47:10.291Z,2392
2018-05-15T10:48:10.588Z,2496
2018-05-15T10:49:10.344Z,2628
2018-05-15T10:50:10.630Z,2728
2018-05-15T10:51:10.643Z,2812
2018-05-15T10:52:10.415Z,2948
2018-05-15T10:53:10.687Z,3144
2018-05-15T10:54:10.712Z,3424
2018-05-15T10:55:10.489Z,3796
2018-05-15T10:56:10.753Z,4232
2018-05-15T10:57:10.793Z,4704
2018-05-15T10:58:10.948Z,5168
2018-05-15T10:59:10.826Z,5504
2018-05-15T11:00:10.599Z,5664
2018-05-15T11:01:10.870Z,5752
2018-05-15T11:02:10.628Z,5884
2018-05-15T11:03:10.898Z,6004
2018-05-15T11:04:10.935Z,6092
2018-05-15T11:05:10.947Z,6096
2018-05-15T11:06:10.558Z,6004
2018-05-15T11:07:10.993Z,5864
2018-05-15T11:08:11.015Z,5676
2018-05-15T11:09:11.039Z,5508
2018-05-15T11:10:11.065Z,5368
2018-05-15T11:11:10.571Z,5288
2018-05-15T11:12:11.111Z,5272
2018-05-15T11:13:11.183Z,5312
2018-05-15T11:14:11.162Z,5380
2018-05-15T11:15:11.172Z,5428
2018-05-15T11:16:10.688Z,5436
2018-05-15T11:17:11.219Z,5428
2018-05-15T11:18:10.732Z,5396
2018-05-15T11:19:10.760Z,5448
2018-05-15T11:20:10.777Z,5612
2018-05-15T11:21:11.050Z,5804
2018-05-15T11:22:10.816Z,5964
2018-05-15T11:23:11.472Z,6072
2018-05-15T11:24:11.376Z,6140
2018-05-15T11:25:11.140Z,6192
2018-05-15T11:26:11.425Z,6248
2018-05-15T11:27:11.441Z,6296
2018-05-15T11:28:11.524Z,6328
2018-05-15T11:29:10.992Z,6332
2018-05-15T11:30:11.530Z,6376
2018-05-15T11:31:11.540Z,6452
2018-05-15T11:32:11.561Z,6572
2018-05-15T11:33:11.479Z,6760
2018-05-15T11:34:11.350Z,6992
2018-05-15T11:35:10.883Z,7268
2018-05-15T11:36:11.882Z,7580
2018-05-15T11:37:11.423Z,7864
2018-05-15T11:38:11.444Z,8096
2018-05-15T11:39:11.725Z,8296
2018-05-15T11:40:11.742Z,8564
2018-05-15T11:41:11.770Z,8924
2018-05-15T11:42:11.538Z,9320
2018-05-15T11:43:11.551Z,9728
2018-05-15T11:44:11.578Z,10156
2018-05-15T11:45:11.868Z,10628
2018-05-15T11:46:11.871Z,11156
2018-05-15T11:47:11.896Z,11760
2018-05-15T11:48:14.505Z,12516
2018-05-15T11:49:14.942Z,13292
2018-05-15T11:50:16.961Z,14440
2018-05-15T11:51:17.123Z,15652
2018-05-15T11:52:14.964Z,17568
2018-05-15T11:53:17.068Z,20672
2018-05-15T11:54:11.829Z,22272
2018-05-15T11:55:11.863Z,24000
2018-05-15T11:56:12.136Z,25824
2018-05-15T11:57:11.648Z,28416
2018-05-15T11:58:12.239Z,28768
2018-05-15T11:59:11.957Z,28096
2018-05-15T12:00:12.218Z,28480
2018-05-15T12:01:12.270Z,30432
2018-05-15T12:02:12.284Z,27456
2018-05-15T12:03:12.096Z,26432
2018-05-15T12:04:12.674Z,27552
2018-05-15T12:05:12.094Z,31648
2018-05-15T12:06:11.873Z,35200
2018-05-15T12:07:12.407Z,34784
2018-05-15T12:08:13.077Z,28800
2018-05-15T12:09:12.429Z,39136
2018-05-15T12:10:11.993Z,43264
2018-05-15T12:11:12.613Z,42816
2018-05-15T12:12:12.297Z,44320
2018-05-15T12:13:12.571Z,45312
2018-05-15T12:14:12.594Z,48000
2018-05-15T12:15:12.250Z,48480
2018-05-15T12:16:13.056Z,32256
2018-05-15T12:17:12.817Z,26048
2018-05-15T12:18:12.761Z,22272
2018-05-15T12:19:12.237Z,21344
2018-05-15T12:20:12.519Z,19488
2018-05-15T12:21:12.605Z,18176
2018-05-15T12:22:12.867Z,17728
2018-05-15T12:23:12.361Z,17984
2018-05-15T12:24:12.915Z,19488
2018-05-15T12:25:12.933Z,29024
2018-05-15T12:26:12.702Z,41024
2018-05-15T12:27:12.492Z,42176
2018-05-15T12:28:12.694Z,46240
2018-05-15T12:29:13.048Z,45184
2018-05-15T12:30:12.833Z,45120
2018-05-15T12:31:13.103Z,43296
2018-05-15T12:32:12.897Z,23840
2018-05-15T12:33:12.972Z,21120
2018-05-15T12:34:13.194Z,23424
2018-05-15T12:35:13.252Z,15948
2018-05-15T12:36:12.743Z,13552
2018-05-15T12:37:13.031Z,11952
2018-05-15T12:38:13.065Z,10592
2018-05-15T12:39:13.102Z,9240
2018-05-15T12:40:13.375Z,7428
2018-05-15T12:41:13.302Z,5748
2018-05-15T12:42:14.643Z,4304
2018-05-15T12:43:13.201Z,3296
2018-05-15T12:44:13.239Z,2796
2018-05-15T12:45:13.521Z,2680
2018-05-15T12:46:13.037Z,2472
2018-05-15T12:47:13.338Z,2220
2018-05-15T12:48:14.053Z,1904
2018-05-15T12:49:13.639Z,1604
2018-05-15T12:50:13.164Z,1432
2018-05-15T12:51:13.677Z,1316
2018-05-15T12:52:13.697Z,1240
2018-05-15T12:53:13.733Z,1188
2018-05-15T12:54:13.887Z,1140
2018-05-15T12:55:13.533Z,1100
2018-05-15T12:56:13.304Z,1084
2018-05-15T12:57:13.332Z,1084
2018-05-15T12:58:13.618Z,1096
2018-05-15T12:59:13.389Z,1104
2018-05-15T13:00:13.681Z,1120
2018-05-15T13:01:13.960Z,1144
2018-05-15T13:02:13.724Z,1176
2018-05-15T13:03:13.994Z,1212
2018-05-15T13:04:13.770Z,1252
2018-05-15T13:05:14.037Z,1284
2018-05-15T13:06:13.810Z,1300
2018-05-15T13:07:14.098Z,1320
2018-05-15T13:08:13.873Z,1340
2018-05-15T13:09:14.150Z,1364
2018-05-15T13:10:13.917Z,1412
2018-05-15T13:11:14.207Z,1472
2018-05-15T13:12:14.217Z,1544
2018-05-15T13:13:14.253Z,1620
2018-05-15T13:14:14.017Z,1700
2018-05-15T13:15:14.033Z,1792
2018-05-15T13:16:14.315Z,1884
2018-05-15T13:17:14.351Z,1996
2018-05-15T13:18:14.126Z,2116
2018-05-15T13:19:14.384Z,2240
2018-05-15T13:20:14.159Z,2356
2018-05-15T13:21:14.449Z,2464
2018-05-15T13:22:14.465Z,2548
2018-05-15T13:23:13.972Z,2620
2018-05-15T13:24:14.260Z,2688
2018-05-15T13:25:14.262Z,2768
2018-05-15T13:26:14.040Z,2864
2018-05-15T13:27:14.568Z,3004
2018-05-15T13:28:14.593Z,3172
2018-05-15T13:29:14.640Z,3336
2018-05-15T13:30:14.386Z,3512
2018-05-15T13:31:14.664Z,3672
2018-05-15T13:32:14.173Z,3828
2018-05-15T13:33:14.467Z,3980
2018-05-15T13:34:14.505Z,4108
2018-05-15T13:35:14.841Z,4224
2018-05-15T13:36:14.016Z,4344
2018-05-15T13:37:14.810Z,4484